^^
Saratoga-Weather Station Historical Data
Daily Summary for July 10, 2020 Units:  Metric    English   Both
Daily Weekly Monthly Yearly Custom
  High: Low: Average:
Temperature: 3.5 °C 0.1 °C 1.5 °C
Dew Point: 1 °C -0.6 °C 0.3 °C
Humidity: 96% 81% 92%
Wind Speed: 6.4km/h 0km/h 1.2km/h
Wind Gust: 11.3km/h - -
Wind- - East
Pressure: 1009.5 hPa 1005.1 hPa -
Precipitation: 0.0 mm    
Historical Graphs
 
 
Tabular Data for July 10, 2020
Time Temperature Dew Point Pressure Wind Wind Speed Wind Gust Humidity Rainfall Rate (Hourly) solar
00:01 1.6 °C 0.9 °C 1009.5 hPa Calm     95% 0.0 mm 0 W/m2
00:06 1.6 °C 0.9 °C 1009.5 hPa Calm     95% 0.0 mm 0 W/m2
00:11 1.6 °C 0.9 °C 1009.5 hPa Calm     95% 0.0 mm 0 W/m2
00:16 1.6 °C 0.9 °C 1009.5 hPa NNE 1.4 km/h 3.2 km/h 95% 0.0 mm 0 W/m2
00:21 1.7 °C 1 °C 1009.5 hPa Calm   1.6 km/h 95% 0.0 mm 0 W/m2
00:26 1.7 °C 1 °C 1009.1 hPa East 1.4 km/h 3.2 km/h 95% 0.0 mm 0 W/m2
00:31 1.7 °C 1 °C 1009.1 hPa SE 1.4 km/h 1.6 km/h 95% 0.0 mm 0 W/m2
00:36 1.7 °C 1 °C 1009.1 hPa Calm   1.6 km/h 95% 0.0 mm 0 W/m2
00:41 1.6 °C 0.9 °C 1009.1 hPa SE 1.4 km/h 3.2 km/h 95% 0.0 mm 0 W/m2
00:46 1.6 °C 0.9 °C 1009.1 hPa Calm     95% 0.0 mm 0 W/m2
00:51 1.6 °C 0.9 °C 1008.8 hPa SE 1.4 km/h 1.6 km/h 95% 0.0 mm 0 W/m2
00:56 1.6 °C 0.9 °C 1008.8 hPa SE 1.4 km/h 1.6 km/h 95% 0.0 mm 0 W/m2
01:01 1.6 °C 0.9 °C 1008.8 hPa Calm     95% 0.0 mm 0 W/m2
01:06 1.6 °C 0.9 °C 1008.8 hPa Calm     95% 0.0 mm 0 W/m2
01:11 1.6 °C 0.9 °C 1008.5 hPa SE 1.4 km/h 1.6 km/h 95% 0.0 mm 0 W/m2
01:16 1.6 °C 0.9 °C 1008.5 hPa Calm     95% 0.0 mm 0 W/m2
01:21 1.6 °C 0.9 °C 1008.5 hPa Calm     95% 0.0 mm 0 W/m2
01:26 1.6 °C 0.9 °C 1008.5 hPa Calm     95% 0.0 mm 0 W/m2
01:31 1.6 °C 0.9 °C 1008.5 hPa Calm     95% 0.0 mm 0 W/m2
01:36 1.6 °C 0.9 °C 1008.5 hPa Calm     95% 0.0 mm 0 W/m2
01:41 1.5 °C 0.8 °C 1008.1 hPa Calm   1.6 km/h 95% 0.0 mm 0 W/m2
01:46 1.5 °C 0.8 °C 1008.1 hPa Calm     95% 0.0 mm 0 W/m2
01:51 1.5 °C 0.8 °C 1008.1 hPa Calm     95% 0.0 mm 0 W/m2
01:56 1.5 °C 0.8 °C 1008.1 hPa Calm     95% 0.0 mm 0 W/m2
02:01 1.4 °C 0.7 °C 1008.1 hPa Calm   1.6 km/h 95% 0.0 mm 0 W/m2
02:06 1.4 °C 0.7 °C 1007.8 hPa Calm     95% 0.0 mm 0 W/m2
02:11 1.4 °C 0.7 °C 1007.8 hPa Calm   1.6 km/h 95% 0.0 mm 0 W/m2
02:16 1.4 °C 0.7 °C 1007.8 hPa Calm     95% 0.0 mm 0 W/m2
02:21 1.4 °C 0.7 °C 1007.5 hPa Calm     95% 0.0 mm 0 W/m2
02:26 1.4 °C 0.7 °C 1007.5 hPa Calm     95% 0.0 mm 0 W/m2
02:31 1.3 °C 0.6 °C 1007.5 hPa Calm     95% 0.0 mm 0 W/m2
02:36 1.3 °C 0.6 °C 1007.5 hPa Calm     95% 0.0 mm 0 W/m2
02:41 1.3 °C 0.6 °C 1007.5 hPa Calm     95% 0.0 mm 0 W/m2
02:46 1.3 °C 0.6 °C 1007.5 hPa Calm     95% 0.0 mm 0 W/m2
02:51 1.3 °C 0.6 °C 1007.5 hPa Calm     95% 0.0 mm 0 W/m2
02:56 1.3 °C 0.6 °C 1007.5 hPa Calm     95% 0.0 mm 0 W/m2
03:01 1.3 °C 0.6 °C 1007.5 hPa Calm     95% 0.0 mm 0 W/m2
03:06 1.3 °C 0.6 °C 1007.5 hPa Calm     95% 0.0 mm 0 W/m2
03:11 1.3 °C 0.6 °C 1007.5 hPa Calm     95% 0.0 mm 0 W/m2
03:16 1.3 °C 0.6 °C 1007.5 hPa Calm     95% 0.0 mm 0 W/m2
03:21 1.2 °C 0.5 °C 1007.5 hPa Calm     95% 0.0 mm 0 W/m2
03:26 1.2 °C 0.5 °C 1007.1 hPa Calm     95% 0.0 mm 0 W/m2
03:31 1.2 °C 0.5 °C 1007.1 hPa Calm     95% 0.0 mm 0 W/m2
03:36 1.1 °C 0.4 °C 1007.1 hPa Calm     95% 0.0 mm 0 W/m2
03:41 1.1 °C 0.4 °C 1007.1 hPa Calm     95% 0.0 mm 0 W/m2
03:46 1.1 °C 0.4 °C 1007.1 hPa Calm     95% 0.0 mm 0 W/m2
03:51 1.1 °C 0.4 °C 1006.8 hPa Calm     95% 0.0 mm 0 W/m2
03:56 1.1 °C 0.4 °C 1006.8 hPa Calm     95% 0.0 mm 0 W/m2
04:01 1.1 °C 0.4 °C 1006.8 hPa Calm     95% 0.0 mm 0 W/m2
04:06 1 °C 0.3 °C 1006.4 hPa Calm     95% 0.0 mm 0 W/m2
04:11 1 °C 0.3 °C 1006.8 hPa Calm     95% 0.0 mm 0 W/m2
04:16 1 °C 0.3 °C 1006.4 hPa Calm     95% 0.0 mm 0 W/m2
04:21 1 °C 0.4 °C 1006.4 hPa Calm     96% 0.0 mm 0 W/m2
04:26 0.9 °C 0.3 °C 1006.4 hPa Calm     96% 0.0 mm 0 W/m2
04:31 1 °C 0.4 °C 1006.4 hPa Calm     96% 0.0 mm 0 W/m2
04:36 1 °C 0.4 °C 1006.4 hPa Calm     96% 0.0 mm 0 W/m2
04:41 1 °C 0.4 °C 1006.1 hPa Calm     96% 0.0 mm 0 W/m2
04:46 1 °C 0.4 °C 1006.1 hPa Calm     96% 0.0 mm 0 W/m2
04:51 1 °C 0.4 °C 1006.1 hPa Calm     96% 0.0 mm 0 W/m2
04:56 1 °C 0.4 °C 1006.1 hPa Calm     96% 0.0 mm 0 W/m2
05:01 1 °C 0.4 °C 1005.8 hPa Calm     96% 0.0 mm 0 W/m2
05:06 0.9 °C 0.3 °C 1005.8 hPa Calm     96% 0.0 mm 0 W/m2
05:11 0.9 °C 0.3 °C 1005.8 hPa Calm     96% 0.0 mm 0 W/m2
05:16 0.9 °C 0.3 °C 1005.8 hPa Calm     96% 0.0 mm 0 W/m2
05:22 0.8 °C 0.1 °C 1005.8 hPa Calm     95% 0.0 mm 0 W/m2
05:27 0.8 °C 0.1 °C 1005.8 hPa Calm   1.6 km/h 95% 0.0 mm 0 W/m2
05:32 0.8 °C 0.1 °C 1005.8 hPa Calm     95% 0.0 mm 0 W/m2
05:37 0.7 °C 0 °C 1005.8 hPa ESE 1.4 km/h 1.6 km/h 95% 0.0 mm 0 W/m2
05:42 0.7 °C 0.1 °C 1005.8 hPa Calm   1.6 km/h 96% 0.0 mm 0 W/m2
05:47 0.7 °C 0.1 °C 1005.8 hPa Calm     96% 0.0 mm 0 W/m2
05:52 0.6 °C -0.1 °C 1005.8 hPa Calm     95% 0.0 mm 0 W/m2
05:57 0.5 °C -0.2 °C 1005.8 hPa Calm     95% 0.0 mm 0 W/m2
06:02 0.4 °C -0.3 °C 1005.8 hPa Calm     95% 0.0 mm 0 W/m2
06:07 0.2 °C -0.5 °C 1005.8 hPa Calm     95% 0.0 mm 0 W/m2
06:12 0.2 °C -0.5 °C 1005.8 hPa Calm     95% 0.0 mm 0 W/m2
06:17 0.1 °C -0.6 °C 1005.8 hPa Calm     95% 0.0 mm 0 W/m2
06:22 0.1 °C -0.6 °C 1005.8 hPa Calm     95% 0.0 mm 0 W/m2
06:27 0.1 °C -0.6 °C 1005.8 hPa Calm     95% 0.0 mm 0 W/m2
06:32 0.1 °C -0.5 °C 1005.8 hPa Calm     96% 0.0 mm 0 W/m2
06:37 0.1 °C -0.5 °C 1005.8 hPa Calm     96% 0.0 mm 0 W/m2
06:42 0.1 °C -0.5 °C 1005.8 hPa Calm     96% 0.0 mm 0 W/m2
06:47 0.1 °C -0.5 °C 1005.8 hPa Calm     96% 0.0 mm 0 W/m2
06:52 0.1 °C -0.5 °C 1005.8 hPa Calm   1.6 km/h 96% 0.0 mm 0 W/m2
06:57 0.2 °C -0.4 °C 1005.8 hPa Calm     96% 0.0 mm 0 W/m2
07:02 0.2 °C -0.4 °C 1005.8 hPa ESE 3.2 km/h 3.2 km/h 96% 0.0 mm 0 W/m2
07:07 0.2 °C -0.4 °C 1006.1 hPa ESE 1.4 km/h 1.6 km/h 96% 0.0 mm 0 W/m2
07:12 0.3 °C -0.3 °C 1006.1 hPa ESE 1.4 km/h 3.2 km/h 96% 0.0 mm 0 W/m2
07:17 0.3 °C -0.3 °C 1006.1 hPa ESE 1.4 km/h 1.6 km/h 96% 0.0 mm 0 W/m2
07:22 0.3 °C -0.3 °C 1006.1 hPa ESE 1.4 km/h 3.2 km/h 96% 0.0 mm 0 W/m2
07:27 0.3 °C -0.3 °C 1006.1 hPa Calm   3.2 km/h 96% 0.0 mm 0 W/m2
07:32 0.2 °C -0.4 °C 1006.1 hPa Calm   1.6 km/h 96% 0.0 mm 0 W/m2
07:37 0.3 °C -0.3 °C 1005.8 hPa Calm     96% 0.0 mm 0 W/m2
07:42 0.3 °C -0.3 °C 1006.1 hPa Calm     96% 0.0 mm 0 W/m2
07:47 0.3 °C -0.3 °C 1005.8 hPa Calm     96% 0.0 mm 0 W/m2
07:52 0.3 °C -0.3 °C 1006.1 hPa Calm   1.6 km/h 96% 0.0 mm 0 W/m2
07:57 0.3 °C -0.3 °C 1005.8 hPa Calm   3.2 km/h 96% 0.0 mm 0 W/m2
08:02 0.3 °C -0.3 °C 1006.1 hPa ESE 1.4 km/h 3.2 km/h 96% 0.0 mm 0 W/m2
08:07 0.3 °C -0.3 °C 1006.1 hPa Calm     96% 0.0 mm 0 W/m2
08:12 0.3 °C -0.3 °C 1006.1 hPa ESE 1.4 km/h 3.2 km/h 96% 0.0 mm 5 W/m2
08:17 0.4 °C -0.2 °C 1006.1 hPa Calm   1.6 km/h 96% 0.0 mm 0 W/m2
08:22 0.4 °C -0.2 °C 1006.1 hPa ESE 1.4 km/h 3.2 km/h 96% 0.0 mm 5 W/m2
08:27 0.4 °C -0.2 °C 1006.1 hPa Calm   3.2 km/h 96% 0.0 mm 5 W/m2
08:32 0.4 °C -0.2 °C 1006.1 hPa Calm     96% 0.0 mm 7 W/m2
08:37 0.4 °C -0.2 °C 1006.1 hPa ESE 3.2 km/h 3.2 km/h 96% 0.0 mm 11 W/m2
08:42 0.4 °C -0.2 °C 1006.1 hPa Calm   1.6 km/h 96% 0.0 mm 12 W/m2
08:47 0.4 °C -0.2 °C 1006.1 hPa Calm   4.8 km/h 96% 0.0 mm 18 W/m2
08:52 0.5 °C -0.1 °C 1006.1 hPa ESE 1.4 km/h 1.6 km/h 96% 0.0 mm 23 W/m2
08:57 0.5 °C -0.1 °C 1006.1 hPa ESE 1.4 km/h 4.8 km/h 96% 0.0 mm 30 W/m2
09:02 0.5 °C -0.1 °C 1006.1 hPa ESE 1.4 km/h 4.8 km/h 96% 0.0 mm 39 W/m2
09:07 0.6 °C -0.1 °C 1006.1 hPa Calm   4.8 km/h 95% 0.0 mm 46 W/m2
09:12 0.6 °C 0 °C 1006.1 hPa ESE 1.4 km/h 3.2 km/h 96% 0.0 mm 54 W/m2
09:17 0.6 °C 0 °C 1006.1 hPa Calm   3.2 km/h 96% 0.0 mm 62 W/m2
09:22 0.7 °C 0.1 °C 1006.1 hPa Calm   3.2 km/h 96% 0.0 mm 58 W/m2
09:27 0.7 °C 0 °C 1006.1 hPa Calm   1.6 km/h 95% 0.0 mm 62 W/m2
09:32 0.8 °C 0.1 °C 1006.1 hPa Calm   1.6 km/h 95% 0.0 mm 95 W/m2
09:37 0.8 °C 0.1 °C 1006.1 hPa NE 4.7 km/h 6.4 km/h 95% 0.0 mm 91 W/m2
09:42 0.9 °C 0.2 °C 1006.1 hPa ENE 1.4 km/h 3.2 km/h 95% 0.0 mm 90 W/m2
09:47 0.9 °C 0.2 °C 1006.1 hPa Calm     95% 0.0 mm 107 W/m2
09:52 1 °C 0.3 °C 1006.1 hPa ENE 1.4 km/h 3.2 km/h 95% 0.0 mm 114 W/m2
09:57 1.1 °C 0.2 °C 1006.1 hPa Calm   3.2 km/h 94% 0.0 mm 102 W/m2
10:03 1.2 °C 0.3 °C 1006.1 hPa NE 3.2 km/h 4.8 km/h 94% 0.0 mm 105 W/m2
10:08 1.3 °C 0.4 °C 1006.4 hPa East 3.2 km/h 4.8 km/h 94% 0.0 mm 105 W/m2
10:13 1.3 °C 0.4 °C 1006.4 hPa ENE 3.2 km/h 3.2 km/h 94% 0.0 mm 86 W/m2
10:18 1.3 °C 0.3 °C 1006.4 hPa East 1.4 km/h 3.2 km/h 93% 0.0 mm 84 W/m2
10:23 1.4 °C 0.4 °C 1006.4 hPa Calm     93% 0.0 mm 90 W/m2
10:28 1.4 °C 0.4 °C 1006.4 hPa ENE 1.4 km/h 4.8 km/h 93% 0.0 mm 93 W/m2
10:33 1.4 °C 0.2 °C 1006.4 hPa NE 3.2 km/h 6.4 km/h 92% 0.0 mm 98 W/m2
10:38 1.4 °C 0.2 °C 1006.1 hPa Calm   3.2 km/h 92% 0.0 mm 105 W/m2
10:43 1.6 °C 0.4 °C 1006.1 hPa NNE 3.2 km/h 6.4 km/h 92% 0.0 mm 114 W/m2
10:48 1.7 °C 0.4 °C 1006.1 hPa ENE 3.2 km/h 6.4 km/h 91% 0.0 mm 116 W/m2
10:53 1.8 °C 0.5 °C 1006.4 hPa Calm   3.2 km/h 91% 0.0 mm 123 W/m2
10:58 1.9 °C 0.6 °C 1006.4 hPa Calm   6.4 km/h 91% 0.0 mm 123 W/m2
11:03 1.9 °C 0.4 °C 1006.4 hPa East 3.2 km/h 4.8 km/h 90% 0.0 mm 132 W/m2
11:08 2 °C 0.4 °C 1006.1 hPa NE 4.7 km/h 6.4 km/h 89% 0.0 mm 132 W/m2
11:13 2.1 °C 0.5 °C 1006.1 hPa ENE 3.2 km/h 3.2 km/h 89% 0.0 mm 135 W/m2
11:18 2.2 °C 0.6 °C 1006.1 hPa ESE 3.2 km/h 6.4 km/h 89% 0.0 mm 134 W/m2
11:23 2.3 °C 0.7 °C 1006.1 hPa ESE 1.4 km/h 4.8 km/h 89% 0.0 mm 141 W/m2
11:28 2.3 °C 0.5 °C 1006.1 hPa Calm   6.4 km/h 88% 0.0 mm 148 W/m2
11:33 2.4 °C 0.6 °C 1006.1 hPa Calm   6.4 km/h 88% 0.0 mm 156 W/m2
11:38 2.6 °C 0.8 °C 1006.1 hPa ENE 3.2 km/h 3.2 km/h 88% 0.0 mm 156 W/m2
11:43 2.8 °C 0.9 °C 1006.1 hPa Calm   3.2 km/h 87% 0.0 mm 151 W/m2
11:48 2.9 °C 1 °C 1006.1 hPa East 1.4 km/h 3.2 km/h 87% 0.0 mm 148 W/m2
11:53 3.1 °C 1 °C 1006.1 hPa NE 1.4 km/h 6.4 km/h 86% 0.0 mm 146 W/m2
11:58 3.1 °C 0.8 °C 1006.1 hPa ESE 4.7 km/h 9.7 km/h 85% 0.0 mm 139 W/m2
12:03 3.1 °C 0.7 °C 1006.1 hPa SE 1.4 km/h 8 km/h 84% 0.0 mm 135 W/m2
12:08 3.1 °C 0.7 °C 1005.8 hPa East 3.2 km/h 9.7 km/h 84% 0.0 mm 128 W/m2
12:13 3.1 °C 0.7 °C 1005.8 hPa East 6.4 km/h 8 km/h 84% 0.0 mm 137 W/m2
12:18 3.1 °C 0.5 °C 1005.8 hPa ESE 3.2 km/h 3.2 km/h 83% 0.0 mm 156 W/m2
12:23 3.2 °C 0.6 °C 1005.8 hPa Calm   9.7 km/h 83% 0.0 mm 186 W/m2
12:28 3.3 °C 0.9 °C 1005.8 hPa East 4.7 km/h 4.8 km/h 84% 0.0 mm 176 W/m2
12:33 3.3 °C 0.7 °C 1005.8 hPa Calm   4.8 km/h 83% 0.0 mm 155 W/m2
12:38 3.3 °C 0.7 °C 1005.8 hPa East 3.2 km/h 4.8 km/h 83% 0.0 mm 146 W/m2
12:43 3.3 °C 0.5 °C 1005.8 hPa SSE 6.4 km/h 9.7 km/h 82% 0.0 mm 142 W/m2
12:48 3.3 °C 0.7 °C 1005.8 hPa ENE 1.4 km/h 8 km/h 83% 0.0 mm 142 W/m2
12:53 3.3 °C 0.7 °C 1005.8 hPa ENE 1.4 km/h 9.7 km/h 83% 0.0 mm 142 W/m2
12:58 3.4 °C 0.8 °C 1005.8 hPa ESE 6.4 km/h 6.4 km/h 83% 0.0 mm 146 W/m2
13:03 3.4 °C 0.6 °C 1005.8 hPa Calm   6.4 km/h 82% 0.0 mm 130 W/m2
13:08 3.5 °C 0.7 °C 1005.8 hPa East 4.7 km/h 9.7 km/h 82% 0.0 mm 148 W/m2
13:13 3.5 °C 0.7 °C 1005.8 hPa East 4.7 km/h 6.4 km/h 82% 0.0 mm 142 W/m2
13:18 3.5 °C 0.7 °C 1005.8 hPa ESE 1.4 km/h 6.4 km/h 82% 0.0 mm 148 W/m2
13:23 3.5 °C 0.7 °C 1005.8 hPa East 3.2 km/h 11.3 km/h 82% 0.0 mm 151 W/m2
13:28 3.5 °C 0.7 °C 1005.4 hPa ESE 4.7 km/h 8 km/h 82% 0.0 mm 144 W/m2
13:33 3.4 °C 0.4 °C 1005.4 hPa East 1.4 km/h 11.3 km/h 81% 0.0 mm 128 W/m2
13:38 3.3 °C 0.4 °C 1005.4 hPa ESE 4.7 km/h 4.8 km/h 81% 0.0 mm 116 W/m2
13:43 3.3 °C 0.5 °C 1005.4 hPa ENE 4.7 km/h 8 km/h 82% 0.0 mm 134 W/m2
13:48 3.3 °C 0.5 °C 1005.4 hPa East 4.7 km/h 6.4 km/h 82% 0.0 mm 148 W/m2
13:53 3.4 °C 0.6 °C 1005.4 hPa ENE 4.7 km/h 11.3 km/h 82% 0.0 mm 132 W/m2
13:58 3.4 °C 0.4 °C 1005.4 hPa East 6.4 km/h 8 km/h 81% 0.0 mm 137 W/m2
14:03 3.3 °C 0.4 °C 1005.1 hPa East 4.7 km/h 6.4 km/h 81% 0.0 mm 130 W/m2
14:08 3.3 °C 0.4 °C 1005.1 hPa East 3.2 km/h 8 km/h 81% 0.0 mm 130 W/m2
14:13 3.3 °C 0.4 °C 1005.4 hPa ENE 3.2 km/h 8 km/h 81% 0.0 mm 120 W/m2
14:18 3.3 °C 0.4 °C 1005.1 hPa East 3.2 km/h 4.8 km/h 81% 0.0 mm 121 W/m2
14:23 3.3 °C 0.4 °C 1005.1 hPa East 3.2 km/h 4.8 km/h 81% 0.0 mm 120 W/m2
14:28 3.3 °C 0.4 °C 1005.1 hPa ENE 6.4 km/h 6.4 km/h 81% 0.0 mm 91 W/m2
14:33 3.2 °C 0.3 °C 1005.1 hPa ESE 3.2 km/h 6.4 km/h 81% 0.0 mm 74 W/m2
14:38 3.2 °C 0.4 °C 1005.1 hPa ENE 6.4 km/h 9.7 km/h 82% 0.0 mm 62 W/m2
14:43 3 °C 0.2 °C 1005.1 hPa ESE 3.2 km/h 8 km/h 82% 0.0 mm 58 W/m2
14:48 2.8 °C 0 °C 1005.1 hPa ENE 4.7 km/h 4.8 km/h 82% 0.0 mm 63 W/m2
14:53 2.8 °C 0 °C 1005.1 hPa ESE 1.4 km/h 6.4 km/h 82% 0.0 mm 54 W/m2
Juneau County Weather
Compliments of Weather Underground - 2 mb